Time;durP1;ratioP1;P1;durP2;ratioP2;P2;SDS_P1;SDS_P2;PMS_P1;PMS_P2;Temp;Humidity;BMP_temperature;BMP_pressure;BME280_temperature;BME280_humidity;BME280_pressure;Samples;Min_cycle;Max_cycle;Signal;HPM_P1;HPM_P2
2023/10/13 00:01:54;;;;;;;14.73;7.22;;;;;;;;;;4975257;28;20038;-77
2023/10/13 00:04:24;;;;;;;14.30;7.13;;;;;;;;;;4975271;28;20065;-77
2023/10/13 00:06:53;;;;;;;13.02;6.13;;;;;;;;;;4975097;28;20034;-79
2023/10/13 00:09:20;;;;;;;10.43;6.18;;;;;;;;;;4985052;28;20066;-77
2023/10/13 00:11:48;;;;;;;14.48;6.30;;;;;;;;;;4988501;28;20038;-77
2023/10/13 00:14:17;;;;;;;12.23;6.38;;;;;;;;;;4982745;28;20502;-76
2023/10/13 00:17:00;;;;;;;9.65;5.45;;;;;;;;;;4977743;28;20113;-77
2023/10/13 00:19:37;;;;;;;10.43;5.72;;;;;;;;;;4979775;28;20394;-78
2023/10/13 00:22:09;;;;;;;14.77;6.88;;;;;;;;;;4976204;28;20027;-77
2023/10/13 00:24:42;;;;;;;9.38;5.88;;;;;;;;;;4975753;28;20034;-77
2023/10/13 00:32:44;;;;;;;12.55;5.40;;;;;;;;;;4956530;29;20031;-77
2023/10/13 00:35:24;;;;;;;13.20;5.75;;;;;;;;;;4953097;29;20035;-77
2023/10/13 00:37:53;;;;;;;13.63;5.72;;;;;;;;;;4954893;28;20110;-76
2023/10/13 00:43:28;;;;;;;8.87;5.17;;;;;;;;;;4953568;28;20027;-77
2023/10/13 00:45:43;;;;;;;12.82;6.68;;;;;;;;;;4953977;29;20031;-76
2023/10/13 00:48:11;;;;;;;14.05;5.97;;;;;;;;;;4937109;29;20042;-77
2023/10/13 00:50:37;;;;;;;14.97;5.60;;;;;;;;;;4936831;29;20035;-76
2023/10/13 00:53:07;;;;;;;12.60;5.60;;;;;;;;;;4952576;29;20159;-77
2023/10/13 00:55:33;;;;;;;12.10;5.28;;;;;;;;;;4968714;28;20486;-77
2023/10/13 00:58:03;;;;;;;9.88;4.95;;;;;;;;;;4943016;28;20033;-77
2023/10/13 01:00:32;;;;;;;8.20;5.07;;;;;;;;;;4975738;28;20114;-77
2023/10/13 01:03:05;;;;;;;13.98;5.53;;;;;;;;;;4976256;28;20074;-78
2023/10/13 01:05:32;;;;;;;10.00;5.30;;;;;;;;;;4975718;28;20137;-77
2023/10/13 01:08:01;;;;;;;12.13;5.15;;;;;;;;;;4959225;28;20039;-76
2023/10/13 01:10:27;;;;;;;9.88;5.47;;;;;;;;;;4975423;28;20058;-76
2023/10/13 01:12:54;;;;;;;10.85;5.70;;;;;;;;;;4975437;28;20051;-76
2023/10/13 01:15:29;;;;;;;11.98;5.82;;;;;;;;;;4974913;28;20045;-77
2023/10/13 01:18:05;;;;;;;12.00;5.55;;;;;;;;;;4975539;28;20030;-77
2023/10/13 01:20:33;;;;;;;10.98;5.38;;;;;;;;;;4976695;28;20050;-76
2023/10/13 01:22:58;;;;;;;8.98;5.40;;;;;;;;;;4976623;28;20038;-78
2023/10/13 01:25:27;;;;;;;11.43;5.18;;;;;;;;;;4959099;28;20031;-77
2023/10/13 01:27:53;;;;;;;8.80;4.60;;;;;;;;;;4975506;28;20089;-76
2023/10/13 01:30:26;;;;;;;7.85;4.38;;;;;;;;;;4975237;28;20039;-77
2023/10/13 01:32:53;;;;;;;7.85;4.43;;;;;;;;;;4958960;28;20482;-77
2023/10/13 01:35:24;;;;;;;10.90;4.45;;;;;;;;;;4958561;28;20031;-77
2023/10/13 01:37:50;;;;;;;9.43;5.18;;;;;;;;;;4976250;28;20031;-76
2023/10/13 01:40:19;;;;;;;8.82;4.47;;;;;;;;;;4958866;28;20030;-77
2023/10/13 01:42:46;;;;;;;14.40;5.25;;;;;;;;;;4958809;28;20023;-77
2023/10/13 01:45:14;;;;;;;10.13;5.25;;;;;;;;;;4958144;28;20544;-76
2023/10/13 01:47:39;;;;;;;7.00;3.88;;;;;;;;;;4975949;28;20035;-76
2023/10/13 01:50:20;;;;;;;11.60;4.70;;;;;;;;;;4974585;28;20042;-77
2023/10/13 01:52:46;;;;;;;9.45;5.32;;;;;;;;;;4976484;28;20031;-76
2023/10/13 01:55:14;;;;;;;11.75;5.80;;;;;;;;;;4942999;28;20050;-76
2023/10/13 01:57:42;;;;;;;13.15;4.63;;;;;;;;;;4959949;28;20109;-78
2023/10/13 02:00:18;;;;;;;7.70;4.15;;;;;;;;;;4959739;28;20131;-78
2023/10/13 02:02:49;;;;;;;8.30;4.28;;;;;;;;;;4959143;28;20125;-77
2023/10/13 02:05:16;;;;;;;10.77;4.70;;;;;;;;;;4959934;28;20031;-76
2023/10/13 02:07:45;;;;;;;10.23;4.28;;;;;;;;;;4989690;28;20023;-76
2023/10/13 02:10:13;;;;;;;12.38;4.85;;;;;;;;;;4992353;28;20035;-77
2023/10/13 02:12:43;;;;;;;8.65;4.40;;;;;;;;;;4996921;28;20026;-77
2023/10/13 02:15:13;;;;;;;7.68;4.10;;;;;;;;;;4976723;28;20030;-77
2023/10/13 02:17:42;;;;;;;7.07;4.10;;;;;;;;;;4972801;28;20043;-76
2023/10/13 02:20:10;;;;;;;8.32;4.35;;;;;;;;;;4981072;28;20034;-77
2023/10/13 02:22:38;;;;;;;8.23;4.35;;;;;;;;;;4974987;28;20442;-77
2023/10/13 02:25:05;;;;;;;7.00;4.40;;;;;;;;;;4978324;28;20094;-77
2023/10/13 02:27:41;;;;;;;9.93;4.78;;;;;;;;;;4962166;28;20039;-78
2023/10/13 02:30:13;;;;;;;8.75;4.20;;;;;;;;;;4985006;28;20027;-77
2023/10/13 02:32:42;;;;;;;7.70;3.95;;;;;;;;;;4968267;28;20407;-76
2023/10/13 02:35:15;;;;;;;8.02;4.57;;;;;;;;;;4975286;28;20023;-78
2023/10/13 02:37:43;;;;;;;8.07;4.20;;;;;;;;;;4974192;28;20030;-76
2023/10/13 02:40:10;;;;;;;8.93;4.13;;;;;;;;;;4973674;28;20026;-76
2023/10/13 02:42:37;;;;;;;8.32;4.88;;;;;;;;;;4972699;28;20027;-77
2023/10/13 02:45:03;;;;;;;9.15;4.70;;;;;;;;;;4973635;28;20031;-77
2023/10/13 02:47:31;;;;;;;8.15;4.38;;;;;;;;;;4958285;28;20074;-77
2023/10/13 02:50:00;;;;;;;8.10;4.23;;;;;;;;;;4958651;28;20395;-76
2023/10/13 02:52:26;;;;;;;8.05;4.68;;;;;;;;;;4958524;28;20035;-76
2023/10/13 02:54:52;;;;;;;8.10;4.40;;;;;;;;;;4974519;28;20107;-76
2023/10/13 02:57:17;;;;;;;10.48;5.07;;;;;;;;;;4958173;28;20137;-78
2023/10/13 02:59:48;;;;;;;9.60;4.40;;;;;;;;;;4953731;28;20031;-77
2023/10/13 03:02:17;;;;;;;12.70;4.80;;;;;;;;;;4954501;28;20097;-77
2023/10/13 03:05:09;;;;;;;8.63;4.30;;;;;;;;;;4953628;29;20048;-77
2023/10/13 03:07:36;;;;;;;12.00;4.78;;;;;;;;;;4951439;29;20035;-76
2023/10/13 03:10:09;;;;;;;9.73;4.53;;;;;;;;;;4954543;28;20035;-76
2023/10/13 03:12:39;;;;;;;8.45;4.80;;;;;;;;;;4954278;29;20550;-77
2023/10/13 03:17:43;;;;;;;11.77;4.32;;;;;;;;;;4957443;28;20037;-77
2023/10/13 03:20:14;;;;;;;8.52;4.82;;;;;;;;;;4972905;28;20037;-76
2023/10/13 03:22:39;;;;;;;7.80;5.20;;;;;;;;;;4973133;28;20043;-77
2023/10/13 03:25:08;;;;;;;11.88;5.68;;;;;;;;;;4972859;28;20493;-76
2023/10/13 03:27:48;;;;;;;10.85;6.15;;;;;;;;;;4974657;28;20023;-77
2023/10/13 03:30:15;;;;;;;11.82;6.13;;;;;;;;;;4974972;28;20050;-77
2023/10/13 03:32:45;;;;;;;14.85;6.50;;;;;;;;;;4973615;28;20018;-76
2023/10/13 03:35:13;;;;;;;16.80;7.50;;;;;;;;;;4973838;28;20022;-75
2023/10/13 03:37:39;;;;;;;14.48;7.40;;;;;;;;;;4973593;28;20386;-77
2023/10/13 03:43:05;;;;;;;18.25;7.30;;;;;;;;;;4973365;28;20390;-77
2023/10/13 03:45:46;;;;;;;14.65;7.75;;;;;;;;;;4973043;28;20035;-77
2023/10/13 03:48:28;;;;;;;14.65;7.88;;;;;;;;;;4975318;28;20030;-76
2023/10/13 03:51:06;;;;;;;14.45;7.38;;;;;;;;;;4974760;28;20030;-76
2023/10/13 03:53:36;;;;;;;13.93;6.88;;;;;;;;;;4972238;28;20125;-77
2023/10/13 03:56:08;;;;;;;12.60;6.72;;;;;;;;;;4975268;28;20550;-76
2023/10/13 03:58:46;;;;;;;14.20;6.57;;;;;;;;;;4975460;28;20031;-77
2023/10/13 04:01:15;;;;;;;16.20;6.38;;;;;;;;;;4962773;28;20029;-77
2023/10/13 04:17:25;;;;;;;12.65;5.63;;;;;;;;;;4965658;28;20094;-76
2023/10/13 04:38:56;;;;;;;10.93;5.20;;;;;;;;;;4978909;28;20027;-77
2023/10/13 04:41:37;;;;;;;11.10;4.90;;;;;;;;;;4980295;28;20031;-77
2023/10/13 04:58:11;;;;;;;8.60;5.38;;;;;;;;;;4983023;28;20102;-76
2023/10/13 05:03:53;;;;;;;9.73;5.28;;;;;;;;;;4993226;28;20350;-78
2023/10/13 05:45:07;;;;;;;14.38;6.90;;;;;;;;;;4979374;28;20536;-78
2023/10/13 06:31:12;;;;;;;12.68;6.00;;;;;;;;;;4957955;28;20031;-78
2023/10/13 06:33:44;;;;;;;18.02;6.45;;;;;;;;;;4956292;28;20035;-77
2023/10/13 06:36:09;;;;;;;15.27;6.68;;;;;;;;;;4977370;28;20139;-77
2023/10/13 06:38:38;;;;;;;10.63;6.57;;;;;;;;;;4978405;28;20019;-79
2023/10/13 06:41:07;;;;;;;12.48;6.80;;;;;;;;;;4975244;28;20110;-77
2023/10/13 06:43:39;;;;;;;13.88;7.28;;;;;;;;;;4976032;28;20395;-78
2023/10/13 06:46:07;;;;;;;12.60;6.60;;;;;;;;;;4976213;28;20111;-78
2023/10/13 06:48:34;;;;;;;14.00;6.45;;;;;;;;;;4976745;28;20034;-78
2023/10/13 06:51:17;;;;;;;11.55;6.10;;;;;;;;;;4975245;28;20041;-79
2023/10/13 06:53:49;;;;;;;11.00;6.60;;;;;;;;;;4973460;28;20034;-78
2023/10/13 06:56:27;;;;;;;13.13;6.32;;;;;;;;;;4978010;28;20553;-78
2023/10/13 06:58:59;;;;;;;13.18;6.32;;;;;;;;;;4980141;28;20031;-77
2023/10/13 07:01:28;;;;;;;11.55;6.05;;;;;;;;;;4984294;28;20054;-77
2023/10/13 07:03:53;;;;;;;12.38;6.07;;;;;;;;;;4982078;28;20483;-77
2023/10/13 07:06:22;;;;;;;11.70;6.15;;;;;;;;;;4986188;28;20041;-77
2023/10/13 07:08:53;;;;;;;;;;;;;;;;;;4984816;28;20030;-77
2023/10/13 07:11:32;;;;;;;9.77;5.55;;;;;;;;;;4979592;28;19906;-77
2023/10/13 07:14:10;;;;;;;13.57;5.78;;;;;;;;;;4978213;28;20588;-77
2023/10/13 07:16:43;;;;;;;8.15;4.50;;;;;;;;;;4978899;28;20022;-78
2023/10/13 07:19:09;;;;;;;18.08;5.93;;;;;;;;;;4983161;28;20034;-80
2023/10/13 07:21:34;;;;;;;9.60;4.90;;;;;;;;;;4982804;28;20046;-79
2023/10/13 07:24:08;;;;;;;9.50;5.15;;;;;;;;;;4982815;28;20058;-78
2023/10/13 07:26:33;;;;;;;8.45;4.35;;;;;;;;;;4982815;28;20038;-78
2023/10/13 07:29:00;;;;;;;12.80;5.95;;;;;;;;;;4980056;28;20078;-78
2023/10/13 07:31:27;;;;;;;13.68;4.32;;;;;;;;;;4962396;28;20399;-78
2023/10/13 07:34:04;;;;;;;12.32;5.03;;;;;;;;;;4990302;28;20026;-77
2023/10/13 07:36:34;;;;;;;11.00;4.70;;;;;;;;;;4997171;28;20046;-77
2023/10/13 07:39:21;;;;;;;9.52;4.85;;;;;;;;;;4996042;28;20030;-78
2023/10/13 07:41:51;;;;;;;9.35;4.05;;;;;;;;;;4995046;28;20087;-77
2023/10/13 07:44:19;;;;;;;10.75;4.88;;;;;;;;;;4993126;28;20027;-78
2023/10/13 07:46:52;;;;;;;19.23;4.43;;;;;;;;;;4982917;28;20051;-77
2023/10/13 07:49:20;;;;;;;14.05;4.85;;;;;;;;;;4979571;28;20041;-79
2023/10/13 07:51:49;;;;;;;8.88;4.47;;;;;;;;;;4975068;28;20415;-77
2023/10/13 07:54:21;;;;;;;;;;;;;;;;;;4960279;28;20035;-79
2023/10/13 07:56:47;;;;;;;10.25;4.20;;;;;;;;;;4981349;28;19937;-78
2023/10/13 07:59:14;;;;;;;11.40;4.10;;;;;;;;;;4967809;28;20038;-77
2023/10/13 08:01:42;;;;;;;10.07;4.28;;;;;;;;;;4943658;28;20120;-77
2023/10/13 08:04:11;;;;;;;14.98;5.00;;;;;;;;;;4975825;28;20150;-79
2023/10/13 08:06:41;;;;;;;10.30;4.90;;;;;;;;;;4975081;28;20133;-78
2023/10/13 08:11:54;;;;;;;9.73;4.35;;;;;;;;;;4979712;28;20030;-78
2023/10/13 08:14:39;;;;;;;15.32;4.90;;;;;;;;;;4962289;28;20031;-78
2023/10/13 08:17:09;;;;;;;10.88;4.60;;;;;;;;;;4977398;28;20027;-78
2023/10/13 08:19:47;;;;;;;10.02;4.55;;;;;;;;;;4977714;28;20177;-76
2023/10/13 08:27:32;;;;;;;11.95;5.30;;;;;;;;;;4974755;28;20027;-78
2023/10/13 08:48:15;;;;;;;14.98;5.03;;;;;;;;;;4984290;28;20047;-78
2023/10/13 08:50:52;;;;;;;15.47;5.37;;;;;;;;;;4980916;28;20027;-78
2023/10/13 09:09:42;;;;;;;10.38;4.75;;;;;;;;;;4977622;28;20391;-77
2023/10/13 09:12:12;;;;;;;17.25;4.65;;;;;;;;;;4962561;28;20398;-79
2023/10/13 09:14:42;;;;;;;251.88;164.13;;;;;;;;;;4980157;28;20031;-80
2023/10/13 09:19:55;;;;;;;13.50;6.93;;;;;;;;;;4962499;28;20026;-80
2023/10/13 09:22:27;;;;;;;24.48;11.13;;;;;;;;;;4979647;28;20070;-79
2023/10/13 09:24:58;;;;;;;15.30;6.80;;;;;;;;;;4960115;28;20038;-79
2023/10/13 09:27:29;;;;;;;11.95;5.25;;;;;;;;;;4960590;28;20138;-80
2023/10/13 09:29:55;;;;;;;16.88;6.25;;;;;;;;;;4928724;29;20066;-81
2023/10/13 09:32:21;;;;;;;16.33;5.38;;;;;;;;;;4943140;28;20475;-82
2023/10/13 09:34:48;;;;;;;16.50;7.53;;;;;;;;;;4959652;29;20041;-80
2023/10/13 09:37:20;;;;;;;19.42;9.80;;;;;;;;;;4975474;28;20035;-79
2023/10/13 09:39:48;;;;;;;12.85;4.93;;;;;;;;;;4960468;28;20031;-80
2023/10/13 09:42:16;;;;;;;19.20;6.60;;;;;;;;;;4961964;28;20075;-81
2023/10/13 09:44:42;;;;;;;10.50;4.55;;;;;;;;;;4967811;28;20111;-80
2023/10/13 09:47:17;;;;;;;15.32;4.82;;;;;;;;;;4944527;29;20046;-80
2023/10/13 09:49:45;;;;;;;11.95;5.90;;;;;;;;;;4941744;29;20031;-80
2023/10/13 09:52:18;;;;;;;21.48;5.65;;;;;;;;;;4944166;29;20479;-79
2023/10/13 09:54:48;;;;;;;14.25;5.70;;;;;;;;;;4958999;29;20062;-79
2023/10/13 09:57:18;;;;;;;15.02;5.40;;;;;;;;;;4927425;29;20364;-79
2023/10/13 09:59:52;;;;;;;18.05;5.22;;;;;;;;;;4959389;29;20038;-79
2023/10/13 10:02:28;;;;;;;15.50;5.57;;;;;;;;;;4928422;29;20042;-79
2023/10/13 10:05:12;;;;;;;21.45;5.00;;;;;;;;;;4949355;28;20093;-81
2023/10/13 10:07:39;;;;;;;10.73;4.53;;;;;;;;;;4977550;28;20101;-79
2023/10/13 10:10:05;;;;;;;10.48;5.00;;;;;;;;;;4981647;28;20138;-80
2023/10/13 10:12:57;;;;;;;16.17;4.95;;;;;;;;;;4977654;28;20502;-78
2023/10/13 10:15:33;;;;;;;12.30;4.63;;;;;;;;;;4989094;28;20050;-78
2023/10/13 10:18:00;;;;;;;15.10;4.72;;;;;;;;;;4963796;28;20043;-78
2023/10/13 10:20:39;;;;;;;11.40;4.70;;;;;;;;;;4965112;28;20043;-80
2023/10/13 10:23:05;;;;;;;12.50;5.00;;;;;;;;;;4963117;28;20120;-78
2023/10/13 10:25:37;;;;;;;14.75;4.70;;;;;;;;;;4998360;28;20157;-79
2023/10/13 10:28:07;;;;;;;14.80;5.63;;;;;;;;;;4980825;28;20569;-79
2023/10/13 10:30:33;;;;;;;13.52;5.25;;;;;;;;;;4981612;28;20035;-80
2023/10/13 10:33:00;;;;;;;14.07;5.03;;;;;;;;;;4977881;28;20394;-78
2023/10/13 10:35:32;;;;;;;14.77;4.82;;;;;;;;;;4977310;28;20035;-78
2023/10/13 10:40:58;;;;;;;13.18;4.07;;;;;;;;;;4976701;28;20027;-78
2023/10/13 10:43:26;;;;;;;13.90;4.00;;;;;;;;;;4977938;28;20038;-78
2023/10/13 10:45:52;;;;;;;9.68;4.30;;;;;;;;;;4978385;28;20031;-78
2023/10/13 10:48:19;;;;;;;15.07;4.60;;;;;;;;;;4976981;28;20093;-78
2023/10/13 10:50:54;;;;;;;9.35;3.83;;;;;;;;;;5108945;27;20406;-78
2023/10/13 10:53:33;;;;;;;10.73;4.57;;;;;;;;;;5095573;28;20115;-78
2023/10/13 10:56:05;;;;;;;13.05;4.65;;;;;;;;;;5100463;28;20040;-77
2023/10/13 10:58:43;;;;;;;45.05;24.27;;;;;;;;;;5114717;28;20051;-81
2023/10/13 11:01:18;;;;;;;21.75;6.75;;;;;;;;;;5112276;28;20115;-80
2023/10/13 11:04:07;;;;;;;20.30;5.45;;;;;;;;;;5097063;28;20028;-79
2023/10/13 11:06:38;;;;;;;13.70;4.75;;;;;;;;;;5077573;28;20045;-79
2023/10/13 11:11:57;;;;;;;12.35;4.05;;;;;;;;;;5096397;28;20032;-80
2023/10/13 11:14:23;;;;;;;9.95;4.30;;;;;;;;;;5079212;28;20032;-80
2023/10/13 11:16:53;;;;;;;11.80;4.45;;;;;;;;;;5062190;28;20033;-78
2023/10/13 11:19:34;;;;;;;15.63;4.60;;;;;;;;;;5095664;28;20044;-78
2023/10/13 11:22:01;;;;;;;;;;;;;;;;;;5059522;28;20034;-78
2023/10/13 11:24:27;;;;;;;13.90;4.03;;;;;;;;;;5101680;28;19908;-79
2023/10/13 11:26:54;;;;;;;8.73;3.90;;;;;;;;;;5076034;28;20074;-79
2023/10/13 11:29:30;;;;;;;18.45;4.43;;;;;;;;;;5070511;28;20028;-79
2023/10/13 11:32:00;;;;;;;19.48;4.03;;;;;;;;;;5061315;28;20039;-80
2023/10/13 11:34:39;;;;;;;12.82;4.45;;;;;;;;;;5074880;28;20024;-80
2023/10/13 11:37:28;;;;;;;16.20;4.15;;;;;;;;;;5095663;28;20431;-78
2023/10/13 11:39:51;;;;;;;14.98;3.78;;;;;;;;;;5092355;28;20110;-79
2023/10/13 11:42:17;;;;;;;12.27;4.00;;;;;;;;;;5077251;28;20381;-78
2023/10/13 11:44:43;;;;;;;14.63;4.68;;;;;;;;;;5101845;28;20028;-79
2023/10/13 11:47:32;;;;;;;11.93;3.90;;;;;;;;;;5103751;28;20024;-80
2023/10/13 11:49:59;;;;;;;14.57;4.75;;;;;;;;;;5113161;28;20028;-78
2023/10/13 11:52:27;;;;;;;21.33;4.60;;;;;;;;;;5113754;28;20538;-78
2023/10/13 11:54:53;;;;;;;17.92;4.15;;;;;;;;;;5111595;28;20036;-79
2023/10/13 11:57:19;;;;;;;876.05;511.73;;;;;;;;;;5115227;28;20089;-80
2023/10/13 11:59:53;;;;;;;24.30;14.38;;;;;;;;;;5112192;28;20032;-80
2023/10/13 12:04:59;;;;;;;11.80;5.63;;;;;;;;;;5086744;28;20043;-79
2023/10/13 12:07:40;;;;;;;19.58;5.63;;;;;;;;;;5087389;28;20036;-78
2023/10/13 12:10:14;;;;;;;14.00;5.30;;;;;;;;;;5087776;28;20487;-79
2023/10/13 12:12:41;;;;;;;17.35;5.55;;;;;;;;;;5085796;28;20057;-78
2023/10/13 12:15:14;;;;;;;15.95;4.93;;;;;;;;;;5079071;28;20032;-79
2023/10/13 12:17:44;;;;;;;20.05;4.60;;;;;;;;;;5079899;28;20088;-80
2023/10/13 12:20:32;;;;;;;14.32;4.40;;;;;;;;;;5095220;28;20029;-79
2023/10/13 12:23:01;;;;;;;15.57;3.80;;;;;;;;;;5091845;28;20028;-80
2023/10/13 12:28:12;;;;;;;12.52;3.85;;;;;;;;;;5099482;28;20434;-81
2023/10/13 12:30:50;;;;;;;14.32;4.07;;;;;;;;;;5065513;28;20032;-79
2023/10/13 12:33:24;;;;;;;10.90;4.00;;;;;;;;;;5100224;28;20020;-79
2023/10/13 12:49:51;;;;;;;14.50;3.90;;;;;;;;;;5084472;28;20036;-80
2023/10/13 12:52:25;;;;;;;14.20;3.97;;;;;;;;;;5097270;28;20028;-79
2023/10/13 12:55:06;;;;;;;15.52;3.97;;;;;;;;;;5098304;28;20490;-82
2023/10/13 12:57:32;;;;;;;17.17;5.00;;;;;;;;;;5117814;28;20028;-79
2023/10/13 12:59:58;;;;;;;15.82;4.05;;;;;;;;;;5106760;28;20092;-79
2023/10/13 13:02:27;;;;;;;19.85;4.80;;;;;;;;;;5096771;28;20025;-80
2023/10/13 13:05:11;;;;;;;13.50;4.55;;;;;;;;;;5095763;28;20028;-80
2023/10/13 13:07:46;;;;;;;16.65;3.88;;;;;;;;;;5096334;28;20031;-79
2023/10/13 13:10:15;;;;;;;15.85;4.70;;;;;;;;;;5087030;28;20040;-79
2023/10/13 13:12:41;;;;;;;14.18;4.28;;;;;;;;;;5076473;28;20024;-81
2023/10/13 13:15:08;;;;;;;12.00;4.40;;;;;;;;;;5077525;28;20112;-78
2023/10/13 13:17:35;;;;;;;12.27;4.80;;;;;;;;;;5060345;28;20376;-79
2023/10/13 13:20:00;;;;;;;12.73;4.60;;;;;;;;;;5091901;28;20024;-80
2023/10/13 13:22:27;;;;;;;9.07;4.82;;;;;;;;;;5089257;28;20032;-79
2023/10/13 13:24:53;;;;;;;16.20;5.53;;;;;;;;;;5050509;28;20048;-80
2023/10/13 13:27:19;;;;;;;18.25;4.72;;;;;;;;;;5062416;28;20051;-79
2023/10/13 13:29:45;;;;;;;10.82;4.93;;;;;;;;;;5076438;28;20036;-80
2023/10/13 13:32:18;;;;;;;13.18;4.10;;;;;;;;;;5077487;28;20203;-80
2023/10/13 13:34:54;;;;;;;15.30;4.90;;;;;;;;;;5060094;28;20062;-80
2023/10/13 13:37:20;;;;;;;12.95;5.05;;;;;;;;;;5075828;28;20035;-79
2023/10/13 13:39:47;;;;;;;681.42;515.50;;;;;;;;;;5091746;28;20111;-81
2023/10/13 13:42:17;;;;;;;19.80;8.48;;;;;;;;;;5044448;28;20106;-80
2023/10/13 13:44:46;;;;;;;;;;;;;;;;;;5070779;28;20032;-81
2023/10/13 13:47:12;;;;;;;13.65;4.25;;;;;;;;;;5081042;28;19958;-80
2023/10/13 13:49:50;;;;;;;10.82;4.47;;;;;;;;;;5080725;28;20035;-82
2023/10/13 13:52:21;;;;;;;19.75;5.00;;;;;;;;;;5094057;28;20081;-81
2023/10/13 13:54:50;;;;;;;14.15;4.40;;;;;;;;;;5078998;28;20060;-82
2023/10/13 13:57:22;;;;;;;15.73;4.22;;;;;;;;;;5097927;28;20031;-83
2023/10/13 13:59:52;;;;;;;14.25;4.28;;;;;;;;;;5070143;28;20052;-81
2023/10/13 14:02:23;;;;;;;10.73;4.07;;;;;;;;;;5080849;28;20024;-82
2023/10/13 14:05:17;;;;;;;15.93;4.32;;;;;;;;;;5070099;28;20056;-81
2023/10/13 14:07:55;;;;;;;13.85;4.05;;;;;;;;;;5078590;28;20036;-82
2023/10/13 14:11:10;;;;;;;15.43;4.18;;;;;;;;;;5077529;28;20059;-82
2023/10/13 14:13:22;;;;;;;13.13;4.07;;;;;;;;;;5076995;28;20025;-81
2023/10/13 14:15:56;;;;;;;15.10;4.32;;;;;;;;;;5060354;28;20108;-81
2023/10/13 14:18:33;;;;;;;15.15;4.13;;;;;;;;;;5075779;28;20033;-82
2023/10/13 14:21:03;;;;;;;10.70;4.00;;;;;;;;;;5059728;28;20040;-81
2023/10/13 14:23:34;;;;;;;12.38;4.55;;;;;;;;;;5074496;28;20028;-81
2023/10/13 14:26:01;;;;;;;12.52;4.00;;;;;;;;;;5059554;28;20036;-82
2023/10/13 14:29:14;;;;;;;17.35;4.30;;;;;;;;;;5043158;28;20088;-82
2023/10/13 14:32:07;;;;;;;10.75;3.75;;;;;;;;;;5056421;28;20043;-82
2023/10/13 14:34:39;;;;;;;14.35;4.03;;;;;;;;;;5039418;28;20400;-81
2023/10/13 14:37:05;;;;;;;16.38;4.70;;;;;;;;;;5059392;28;20085;-80
2023/10/13 14:39:34;;;;;;;15.57;4.70;;;;;;;;;;5057969;28;20502;-82
2023/10/13 14:42:01;;;;;;;10.85;3.85;;;;;;;;;;5074392;28;20047;-82
2023/10/13 14:44:26;;;;;;;9.73;4.40;;;;;;;;;;5043538;28;20040;-81
2023/10/13 14:46:54;;;;;;;12.68;4.18;;;;;;;;;;5045244;28;20078;-82
2023/10/13 14:49:20;;;;;;;12.23;4.25;;;;;;;;;;5061445;28;20063;-81
2023/10/13 14:51:46;;;;;;;13.50;4.00;;;;;;;;;;5061587;28;20028;-82
2023/10/13 14:54:14;;;;;;;17.33;4.22;;;;;;;;;;5077920;28;20531;-82
2023/10/13 14:56:42;;;;;;;13.98;4.15;;;;;;;;;;5078001;28;20028;-82
2023/10/13 14:59:17;;;;;;;14.77;4.27;;;;;;;;;;5080122;28;20108;-83
2023/10/13 15:01:46;;;;;;;13.15;4.32;;;;;;;;;;5080751;28;20272;-82
2023/10/13 15:04:12;;;;;;;13.63;4.10;;;;;;;;;;5072207;28;20380;-82
2023/10/13 15:06:38;;;;;;;11.05;4.40;;;;;;;;;;5077247;28;20025;-82
2023/10/13 15:09:10;;;;;;;11.20;4.65;;;;;;;;;;5104278;28;20036;-82
2023/10/13 15:11:37;;;;;;;16.33;4.35;;;;;;;;;;5112769;28;20069;-82
2023/10/13 15:14:06;;;;;;;16.92;5.18;;;;;;;;;;5124612;28;20054;-82
2023/10/13 15:16:33;;;;;;;13.65;4.53;;;;;;;;;;5100316;28;20035;-83
2023/10/13 15:19:03;;;;;;;12.75;4.25;;;;;;;;;;5082861;28;20073;-80
2023/10/13 15:21:34;;;;;;;15.77;4.63;;;;;;;;;;5099770;28;20062;-84
2023/10/13 15:24:03;;;;;;;14.13;3.78;;;;;;;;;;5084162;28;20035;-83
2023/10/13 15:26:37;;;;;;;12.38;3.88;;;;;;;;;;5102117;28;20383;-83
2023/10/13 15:29:09;;;;;;;16.83;4.85;;;;;;;;;;5085189;28;20423;-82
2023/10/13 15:34:10;;;;;;;13.25;4.38;;;;;;;;;;5116570;28;20027;-81
2023/10/13 15:36:36;;;;;;;13.32;4.05;;;;;;;;;;5131677;28;20057;-81
2023/10/13 15:39:02;;;;;;;10.32;3.70;;;;;;;;;;5105897;28;20039;-83
2023/10/13 15:41:29;;;;;;;11.60;4.00;;;;;;;;;;5123115;28;20024;-84
2023/10/13 15:43:57;;;;;;;11.88;4.38;;;;;;;;;;5105090;28;20035;-82
2023/10/13 15:46:22;;;;;;;15.65;4.50;;;;;;;;;;5122161;28;20031;-82
2023/10/13 15:48:48;;;;;;;19.48;4.82;;;;;;;;;;5083820;28;20062;-83
2023/10/13 15:51:18;;;;;;;13.43;3.80;;;;;;;;;;5067883;28;20040;-81
2023/10/13 15:53:47;;;;;;;13.52;4.30;;;;;;;;;;5084535;28;20044;-83
2023/10/13 15:56:16;;;;;;;13.35;3.35;;;;;;;;;;5069920;28;20119;-81
2023/10/13 15:58:46;;;;;;;15.82;4.18;;;;;;;;;;5087643;28;20050;-82
2023/10/13 16:01:13;;;;;;;12.40;4.03;;;;;;;;;;5102052;28;20111;-82
2023/10/13 16:03:43;;;;;;;12.90;3.90;;;;;;;;;;5082317;28;20028;-82
2023/10/13 16:06:11;;;;;;;10.35;4.25;;;;;;;;;;5064858;28;20063;-82
2023/10/13 16:08:37;;;;;;;9.18;3.78;;;;;;;;;;5070037;28;20044;-84
2023/10/13 16:11:13;;;;;;;9.00;3.63;;;;;;;;;;5075360;28;20124;-78
2023/10/13 16:13:45;;;;;;;12.10;3.85;;;;;;;;;;5077853;28;20032;-80
2023/10/13 16:16:29;;;;;;;10.68;4.63;;;;;;;;;;5119218;28;20076;-79
2023/10/13 16:18:54;;;;;;;10.18;3.60;;;;;;;;;;5119463;28;20023;-79
2023/10/13 16:21:20;;;;;;;9.43;3.67;;;;;;;;;;5118790;28;20092;-77
2023/10/13 16:23:49;;;;;;;11.23;3.72;;;;;;;;;;5083164;28;20038;-79
2023/10/13 16:26:15;;;;;;;10.27;3.53;;;;;;;;;;5117033;28;20024;-78
2023/10/13 16:28:41;;;;;;;7.32;3.72;;;;;;;;;;5118375;28;20062;-79
2023/10/13 16:31:07;;;;;;;11.50;3.65;;;;;;;;;;5118956;28;20502;-78
2023/10/13 16:33:35;;;;;;;17.27;3.75;;;;;;;;;;5082879;28;20039;-78
2023/10/13 16:36:10;;;;;;;14.00;3.72;;;;;;;;;;5099467;28;20036;-78
2023/10/13 16:38:39;;;;;;;12.98;4.28;;;;;;;;;;5084131;28;20091;-78
2023/10/13 16:41:12;;;;;;;8.55;3.42;;;;;;;;;;5117856;28;20059;-78
2023/10/13 16:43:38;;;;;;;9.18;3.60;;;;;;;;;;5099802;28;20104;-79
2023/10/13 16:46:12;;;;;;;10.88;4.15;;;;;;;;;;5118446;28;20028;-80
2023/10/13 16:48:41;;;;;;;11.30;3.78;;;;;;;;;;5082455;27;20024;-78
2023/10/13 16:51:12;;;;;;;15.52;3.60;;;;;;;;;;5043004;28;20108;-81
2023/10/13 16:53:49;;;;;;;14.43;5.03;;;;;;;;;;5059205;28;20040;-78
2023/10/13 16:56:16;;;;;;;12.15;4.43;;;;;;;;;;5069621;28;20055;-78
2023/10/13 16:58:44;;;;;;;14.13;3.88;;;;;;;;;;5076939;28;20126;-79
2023/10/13 17:01:13;;;;;;;12.97;3.70;;;;;;;;;;5075777;28;20096;-79
2023/10/13 17:03:39;;;;;;;9.60;3.58;;;;;;;;;;5074977;28;20029;-79
2023/10/13 17:06:07;;;;;;;13.82;3.72;;;;;;;;;;5076425;28;20115;-80
2023/10/13 17:08:33;;;;;;;8.75;3.95;;;;;;;;;;5074734;28;20075;-78
2023/10/13 17:11:13;;;;;;;15.38;3.42;;;;;;;;;;5058641;28;20475;-79
2023/10/13 17:13:40;;;;;;;10.38;3.35;;;;;;;;;;5075529;28;20361;-79
2023/10/13 17:16:17;;;;;;;10.90;3.60;;;;;;;;;;5091512;28;20024;-78
2023/10/13 17:18:43;;;;;;;10.82;3.55;;;;;;;;;;5077987;28;20509;-78
2023/10/13 17:21:22;;;;;;;10.50;3.90;;;;;;;;;;5096139;28;20024;-79
2023/10/13 17:23:51;;;;;;;22.30;4.30;;;;;;;;;;5099175;28;20031;-77
2023/10/13 17:26:17;;;;;;;13.23;3.80;;;;;;;;;;5102850;28;20061;-77
2023/10/13 17:28:43;;;;;;;8.38;3.85;;;;;;;;;;5090490;28;20032;-78
2023/10/13 17:31:09;;;;;;;12.57;4.32;;;;;;;;;;5094027;28;20103;-79
2023/10/13 17:33:40;;;;;;;12.93;4.85;;;;;;;;;;5111612;28;20043;-77
2023/10/13 17:36:06;;;;;;;10.40;3.97;;;;;;;;;;5111428;28;20030;-78
2023/10/13 17:38:32;;;;;;;20.77;4.38;;;;;;;;;;5096676;28;20495;-78
2023/10/13 17:40:59;;;;;;;10.73;3.78;;;;;;;;;;5078118;28;20036;-79
2023/10/13 17:43:25;;;;;;;13.95;3.80;;;;;;;;;;5077448;28;20043;-79
2023/10/13 17:45:50;;;;;;;14.98;3.90;;;;;;;;;;5076803;28;20029;-78
2023/10/13 17:48:16;;;;;;;9.95;4.35;;;;;;;;;;5079748;28;20435;-79
2023/10/13 17:50:42;;;;;;;11.43;4.10;;;;;;;;;;5074686;28;20483;-80
2023/10/13 17:53:08;;;;;;;14.80;4.43;;;;;;;;;;5077826;28;20058;-79
2023/10/13 17:55:38;;;;;;;14.45;3.90;;;;;;;;;;5088506;28;20036;-79
2023/10/13 17:58:05;;;;;;;9.88;3.83;;;;;;;;;;5099491;28;20047;-79
2023/10/13 18:00:34;;;;;;;10.63;4.18;;;;;;;;;;5101200;28;20032;-80
2023/10/13 18:03:03;;;;;;;14.95;5.05;;;;;;;;;;5097419;28;20135;-78
2023/10/13 18:05:31;;;;;;;9.43;4.30;;;;;;;;;;5093367;28;20028;-79
2023/10/13 18:08:00;;;;;;;;;;;;;;;;;;5095682;28;20085;-78
2023/10/13 18:10:25;;;;;;;13.02;4.18;;;;;;;;;;5099515;28;19912;-78
2023/10/13 18:12:51;;;;;;;13.07;3.85;;;;;;;;;;5097763;28;20380;-80
2023/10/13 18:15:23;;;;;;;11.95;4.80;;;;;;;;;;5096150;28;20016;-78
2023/10/13 18:17:50;;;;;;;11.00;4.63;;;;;;;;;;5098368;28;20241;-79
2023/10/13 18:20:18;;;;;;;11.07;4.70;;;;;;;;;;5106871;28;20043;-79
2023/10/13 18:22:44;;;;;;;;;;;;;;;;;;5116893;28;20024;-79
2023/10/13 18:25:12;;;;;;;15.48;4.47;;;;;;;;;;5115782;28;19954;-79
2023/10/13 18:27:44;;;;;;;13.70;4.25;;;;;;;;;;5116018;28;20032;-78
2023/10/13 18:30:12;;;;;;;9.13;4.00;;;;;;;;;;5114979;28;20032;-80
2023/10/13 18:32:41;;;;;;;11.40;3.72;;;;;;;;;;5090275;28;20040;-79